Time;durP1;ratioP1;P1;durP2;ratioP2;P2;SDS_P1;SDS_P2;PMS_P1;PMS_P2;Temp;Humidity;BMP_temperature;BMP_pressure;BME280_temperature;BME280_humidity;BME280_pressure;Samples;Min_cycle;Max_cycle;Signal;HPM_P1;HPM_P2
2022/05/23 00:02:22;;;;;;;5.15;3.40;;;;;;;8.45;100.00;98632.25;4400656;32;20435;-81
2022/05/23 00:04:49;;;;;;;3.80;3.12;;;;;;;8.59;100.00;98648.84;4388732;32;20108;-81
2022/05/23 00:07:24;;;;;;;6.00;2.95;;;;;;;8.31;100.00;98613.00;4402854;32;20053;-82
2022/05/23 00:09:50;;;;;;;3.95;3.12;;;;;;;8.66;100.00;98654.84;4401236;32;20047;-80
2022/05/23 00:12:17;;;;;;;6.57;2.67;;;;;;;8.53;100.00;98649.81;4386866;32;20039;-82
2022/05/23 00:14:43;;;;;;;5.85;3.80;;;;;;;8.23;100.00;98613.37;4402177;32;20074;-81
2022/05/23 00:17:13;;;;;;;5.03;3.37;;;;;;;8.35;100.00;98627.53;4402065;32;20392;-81
2022/05/23 00:19:40;;;;;;;7.05;3.05;;;;;;;8.56;100.00;98654.69;4402459;32;20384;-82
2022/05/23 00:22:09;;;;;;;3.97;2.95;;;;;;;8.43;100.00;98655.00;4387273;32;20365;-82
2022/05/23 00:24:36;;;;;;;12.70;3.58;;;;;;;8.12;100.00;98611.59;4401393;32;20050;-81
2022/05/23 00:27:05;;;;;;;9.55;3.80;;;;;;;8.25;100.00;98642.63;4402707;32;20054;-81
2022/05/23 00:29:32;;;;;;;4.15;2.50;;;;;;;8.27;100.00;98652.06;4403938;32;20097;-80
2022/05/23 00:37:28;;;;;;;5.45;2.70;;;;;;;7.85;100.00;98612.25;4402357;32;20073;-81
2022/05/23 00:39:56;;;;;;;3.80;2.33;;;;;;;7.29;100.00;98539.69;4400623;32;20182;-80
2022/05/23 00:45:18;;;;;;;3.08;2.60;;;;;;;8.05;100.00;98660.03;4386385;32;20072;-80
2022/05/23 00:47:46;;;;;;;2.83;2.50;;;;;;;8.01;100.00;98653.53;4385415;32;20071;-81
2022/05/23 00:50:16;;;;;;;8.38;3.10;;;;;;;7.60;100.00;98615.28;4386702;32;20097;-81
2022/05/23 00:52:51;;;;;;;3.35;2.70;;;;;;;7.90;100.00;98663.25;4386994;32;20039;-83
2022/05/23 00:55:23;;;;;;;3.15;2.65;;;;;;;7.89;100.00;98656.25;4397154;32;20463;-81
2022/05/23 00:57:55;;;;;;;5.35;3.45;;;;;;;7.76;100.00;98652.00;4401887;32;20039;-82
2022/05/23 01:00:22;;;;;;;10.68;2.92;;;;;;;7.77;100.00;98650.13;4388438;32;20188;-82
2022/05/23 01:02:54;;;;;;;2.58;2.37;;;;;;;7.69;100.00;98655.88;4388362;32;20056;-82
2022/05/23 01:05:20;;;;;;;5.05;2.42;;;;;;;7.56;100.00;98624.84;4399881;32;20064;-82
2022/05/23 01:07:47;;;;;;;3.53;2.87;;;;;;;7.35;100.00;98602.22;4400570;32;20078;-81
2022/05/23 01:10:14;;;;;;;2.90;2.22;;;;;;;7.59;100.00;98646.59;4401349;32;20038;-81
2022/05/23 01:12:41;;;;;;;3.53;2.62;;;;;;;7.36;100.00;98609.22;4401359;32;20380;-81
2022/05/23 01:15:21;;;;;;;4.68;3.28;;;;;;;7.67;100.00;98649.97;4387375;32;20051;-79
2022/05/23 01:17:48;;;;;;;5.45;2.40;;;;;;;7.73;100.00;98654.38;4401743;32;20076;-81
2022/05/23 01:20:16;;;;;;;3.58;2.58;;;;;;;7.63;100.00;98652.31;4400226;32;20074;-81
2022/05/23 01:22:57;;;;;;;4.18;2.70;;;;;;;7.47;100.00;98616.38;4401955;32;20375;-80
2022/05/23 01:25:32;;;;;;;7.47;3.12;;;;;;;7.71;100.00;98659.97;4401939;32;20140;-81
2022/05/23 01:27:58;;;;;;;2.80;2.28;;;;;;;7.86;100.00;98667.47;4401247;32;20057;-80
2022/05/23 01:30:27;;;;;;;7.70;2.78;;;;;;;7.75;100.00;98671.00;4400064;32;20061;-81
2022/05/23 01:32:55;;;;;;;3.22;2.65;;;;;;;7.72;100.00;98666.13;4384635;32;20035;-81
2022/05/23 01:35:22;;;;;;;6.00;3.33;;;;;;;7.63;100.00;98663.84;4386492;32;20055;-82
2022/05/23 01:37:49;;;;;;;3.92;2.80;;;;;;;7.32;100.00;98608.06;4381495;32;20065;-82
2022/05/23 01:40:18;;;;;;;4.78;2.75;;;;;;;7.49;100.00;98662.50;4401365;32;20039;-82
2022/05/23 01:42:46;;;;;;;8.23;2.60;;;;;;;7.19;100.00;98615.31;4398352;32;20470;-80
2022/05/23 01:45:19;;;;;;;4.22;3.15;;;;;;;7.45;100.00;98653.28;4401475;32;20078;-82
2022/05/23 01:47:45;;;;;;;6.07;3.47;;;;;;;7.61;100.00;98657.91;4401078;32;20030;-83
2022/05/23 01:50:12;;;;;;;4.40;3.70;;;;;;;7.51;100.00;98655.03;4401299;32;20346;-81
2022/05/23 01:52:40;;;;;;;8.45;4.28;;;;;;;7.32;100.00;98605.38;4385995;32;20034;-79
2022/05/23 01:55:09;;;;;;;15.88;8.88;;;;;;;7.58;100.00;98650.34;4403311;32;20047;-83
2022/05/23 01:57:36;;;;;;;6.20;2.50;;;;;;;7.47;100.00;98648.53;4404928;32;20068;-84
2022/05/23 02:02:51;;;;;;;2.62;2.33;;;;;;;7.27;100.00;98644.41;4403191;32;20086;-82
2022/05/23 02:05:18;;;;;;;3.12;2.80;;;;;;;7.23;100.00;98648.59;4404241;32;20042;-82
2022/05/23 02:07:45;;;;;;;9.90;6.50;;;;;;;7.36;100.00;98647.53;4403955;32;20071;-83
2022/05/23 02:10:12;;;;;;;11.65;8.55;;;;;;;7.42;100.00;98651.13;4404345;32;20072;-83
2022/05/23 02:12:40;;;;;;;15.15;6.22;;;;;;;7.49;100.00;98641.06;4390310;32;20043;-82
2022/05/23 02:15:07;;;;;;;6.80;4.10;;;;;;;7.25;100.00;98611.69;4388124;32;20080;-83
2022/05/23 02:17:36;;;;;;;9.45;3.25;;;;;;;7.18;100.00;98611.03;4398522;32;20076;-83
2022/05/23 02:20:04;;;;;;;6.57;2.58;;;;;;;7.13;100.00;98643.03;4404300;32;20070;-83
2022/05/23 02:22:30;;;;;;;9.50;2.47;;;;;;;7.13;100.00;98648.38;4402557;32;20061;-82
2022/05/23 02:25:00;;;;;;;7.55;3.40;;;;;;;6.85;100.00;98606.31;4404333;32;20469;-83
2022/05/23 02:27:26;;;;;;;4.25;3.12;;;;;;;7.08;100.00;98640.25;4390054;32;20046;-82
2022/05/23 02:29:52;;;;;;;6.37;3.05;;;;;;;7.22;100.00;98646.97;4403447;32;20042;-82
2022/05/23 02:32:19;;;;;;;3.72;3.08;;;;;;;7.03;100.00;98605.34;4404093;32;20042;-84
2022/05/23 02:34:46;;;;;;;5.93;2.67;;;;;;;7.31;100.00;98649.28;4386993;32;20068;-83
2022/05/23 02:37:13;;;;;;;8.75;2.60;;;;;;;7.07;100.00;98611.88;4390539;32;20064;-82
2022/05/23 02:39:40;;;;;;;4.40;2.55;;;;;;;7.24;100.00;98642.22;4390650;32;20056;-82
2022/05/23 02:42:08;;;;;;;2.92;2.60;;;;;;;7.24;100.00;98642.22;4404262;32;20046;-82
2022/05/23 02:44:35;;;;;;;5.35;2.65;;;;;;;7.11;100.00;98623.72;4401839;32;20484;-81
2022/05/23 02:47:03;;;;;;;6.10;4.50;;;;;;;7.05;100.00;98627.34;4404241;32;20464;-81
2022/05/23 02:49:31;;;;;;;8.10;2.12;;;;;;;7.00;100.00;98632.59;4403812;32;20043;-82
2022/05/23 02:51:57;;;;;;;12.40;2.83;;;;;;;6.96;100.00;98626.09;4390663;32;20031;-82
2022/05/23 02:54:24;;;;;;;11.68;2.75;;;;;;;6.83;100.00;98598.53;4375352;32;20030;-80
2022/05/23 02:56:52;;;;;;;4.10;2.37;;;;;;;6.90;100.00;98607.22;4402909;32;20097;-81
2022/05/23 02:59:21;;;;;;;11.45;3.00;;;;;;;6.98;100.00;98621.31;4390328;32;20038;-81
2022/05/23 03:04:35;;;;;;;8.70;2.85;;;;;;;7.11;100.00;98615.69;4402933;32;20077;-83
2022/05/23 03:07:02;;;;;;;5.12;2.33;;;;;;;7.12;100.00;98617.31;4389401;32;20341;-81
2022/05/23 03:09:31;;;;;;;3.90;3.42;;;;;;;7.13;100.00;98616.25;4402877;32;20353;-81
2022/05/23 03:11:57;;;;;;;4.55;2.55;;;;;;;7.17;100.00;98617.41;4390040;32;20043;-81
2022/05/23 03:14:26;;;;;;;4.00;2.65;;;;;;;6.95;100.00;98581.63;4386756;32;20120;-80
2022/05/23 03:16:53;;;;;;;6.65;2.87;;;;;;;7.11;100.00;98610.31;4403193;32;20088;-81
2022/05/23 03:19:20;;;;;;;3.80;2.83;;;;;;;7.14;100.00;98617.88;4398737;32;20042;-81
2022/05/23 03:27:18;;;;;;;6.03;3.42;;;;;;;7.01;100.00;98591.41;4402007;32;20072;-82
2022/05/23 03:29:45;;;;;;;10.50;3.92;;;;;;;7.14;100.00;98614.41;4388142;32;20070;-80
2022/05/23 03:32:13;;;;;;;8.15;3.08;;;;;;;7.17;100.00;98606.72;4403490;32;20955;-81
2022/05/23 03:34:39;;;;;;;2.47;2.28;;;;;;;7.15;100.00;98606.13;4402691;32;20060;-82
2022/05/23 03:37:06;;;;;;;10.65;2.17;;;;;;;7.25;100.00;98617.03;4389632;32;20065;-82
2022/05/23 03:39:32;;;;;;;6.70;2.83;;;;;;;7.19;100.00;98609.94;4401017;32;20031;-80
2022/05/23 03:41:59;;;;;;;10.55;2.83;;;;;;;7.30;100.00;98610.16;4400798;32;20072;-80
2022/05/23 03:44:26;;;;;;;5.65;2.85;;;;;;;7.33;100.00;98604.34;4402267;32;20042;-80
2022/05/23 03:46:52;;;;;;;6.25;3.22;;;;;;;7.20;100.00;98567.94;4402021;32;20035;-80
2022/05/23 03:49:19;;;;;;;11.73;3.53;;;;;;;7.32;100.00;98573.25;4388744;32;20471;-80
2022/05/23 03:51:46;;;;;;;6.25;3.53;;;;;;;7.58;100.00;98602.12;4403078;32;20356;-80
2022/05/23 03:54:12;;;;;;;11.05;3.40;;;;;;;7.68;100.00;98612.22;4404817;32;20039;-82
2022/05/23 03:56:40;;;;;;;14.25;3.28;;;;;;;7.71;100.00;98616.28;4418165;32;20072;-84
2022/05/23 03:59:06;;;;;;;8.25;4.15;;;;;;;7.50;100.00;98567.69;4418246;32;20057;-81
2022/05/23 04:01:33;;;;;;;10.00;3.70;;;;;;;7.85;100.00;98612.25;4408643;32;20039;-81
2022/05/23 04:04:00;;;;;;;5.22;3.03;;;;;;;7.95;100.00;98607.03;4400564;32;20042;-79
2022/05/23 04:06:29;;;;;;;2.45;2.25;;;;;;;8.01;100.00;98610.62;4403498;32;20080;-81
2022/05/23 04:08:56;;;;;;;10.02;2.90;;;;;;;8.05;100.00;98616.31;4404839;32;20057;-81
2022/05/23 04:11:23;;;;;;;4.43;2.67;;;;;;;8.19;100.00;98618.41;4403313;32;20051;-81
2022/05/23 04:13:50;;;;;;;4.50;2.87;;;;;;;8.14;100.00;98610.31;4402522;32;20318;-79
2022/05/23 04:16:16;;;;;;;4.37;2.80;;;;;;;8.24;100.00;98611.53;4400567;32;20065;-82
2022/05/23 04:18:44;;;;;;;4.30;2.12;;;;;;;8.31;100.00;98618.34;4401698;32;20370;-82
2022/05/23 04:21:10;;;;;;;2.60;2.33;;;;;;;8.36;100.00;98621.09;4402598;32;20068;-82
2022/05/23 04:23:38;;;;;;;4.70;2.67;;;;;;;8.53;100.00;98623.78;4403154;32;20324;-80
2022/05/23 04:26:09;;;;;;;3.62;2.50;;;;;;;8.34;100.00;98588.34;4389481;32;20167;-82
2022/05/23 04:28:39;;;;;;;2.53;2.10;;;;;;;8.61;100.00;98614.50;4373327;32;20085;-80
2022/05/23 04:31:07;;;;;;;2.72;2.22;;;;;;;8.83;100.00;98637.91;4391386;32;20089;-81
2022/05/23 04:36:20;;;;;;;5.12;2.22;;;;;;;8.88;100.00;98646.81;4402142;32;20063;-81
2022/05/23 04:38:47;;;;;;;2.75;1.70;;;;;;;8.95;100.00;98632.41;4402210;32;20085;-80
2022/05/23 04:41:13;;;;;;;6.57;2.28;;;;;;;9.11;100.00;98639.63;4402391;32;20035;-80
2022/05/23 04:43:45;;;;;;;2.40;1.73;;;;;;;8.88;100.00;98621.84;4398281;32;20476;-74
2022/05/23 04:46:11;;;;;;;2.08;1.80;;;;;;;9.03;100.00;98643.53;4405385;32;20072;-75
2022/05/23 04:51:27;;;;;;;3.55;2.05;;;;;;;8.98;100.00;98623.84;4386338;32;20068;-74
2022/05/23 04:53:55;;;;;;;3.20;1.62;;;;;;;9.09;100.00;98621.06;4386723;32;20098;-74
2022/05/23 04:56:23;;;;;;;2.83;2.12;;;;;;;9.44;100.00;98654.78;4387959;32;20044;-74
2022/05/23 04:58:50;;;;;;;7.22;1.80;;;;;;;9.68;100.00;98665.25;4388266;32;20104;-76
2022/05/23 05:01:17;;;;;;;2.97;1.73;;;;;;;9.64;100.00;98666.84;4396195;32;20039;-74
2022/05/23 05:03:44;;;;;;;3.60;2.10;;;;;;;9.54;100.00;98637.13;4400149;32;20055;-74
2022/05/23 05:06:10;;;;;;;2.17;2.00;;;;;;;9.77;100.00;98669.13;4401942;32;20043;-75
2022/05/23 05:08:37;;;;;;;5.65;2.25;;;;;;;9.63;100.00;98630.25;4400357;32;20034;-74
2022/05/23 05:11:04;;;;;;;3.90;2.10;;;;;;;9.88;100.00;98669.22;4398803;32;20046;-75
2022/05/23 05:13:36;;;;;;;3.78;2.35;;;;;;;10.05;100.00;98664.56;4401661;32;20076;-74
2022/05/23 05:16:05;;;;;;;2.53;2.10;;;;;;;10.01;100.00;98658.06;4400473;32;20039;-74
2022/05/23 05:18:34;;;;;;;10.48;2.30;;;;;;;9.89;100.00;98622.44;4401465;32;20051;-75
2022/05/23 05:21:05;;;;;;;2.35;1.98;;;;;;;10.15;100.00;98648.50;4384326;32;20031;-75
2022/05/23 05:23:36;;;;;;;2.35;1.70;;;;;;;10.27;100.00;98652.87;4386086;32;20076;-74
2022/05/23 05:26:05;;;;;;;2.97;1.30;;;;;;;10.12;100.00;98640.94;4387239;32;20035;-74
2022/05/23 05:28:34;;;;;;;2.03;1.55;;;;;;;9.89;100.00;98606.28;4386972;32;20069;-74
2022/05/23 05:31:07;;;;;;;1.85;1.70;;;;;;;9.98;100.00;98620.91;4397855;32;20060;-74
2022/05/23 05:33:40;;;;;;;2.42;1.50;;;;;;;10.26;100.00;98646.69;4399857;32;20039;-74
2022/05/23 05:36:16;;;;;;;1.60;1.50;;;;;;;10.31;100.00;98645.94;4404134;32;20051;-73
2022/05/23 05:38:54;;;;;;;4.87;1.48;;;;;;;10.18;100.00;98607.63;4409590;32;20039;-73
2022/05/23 05:41:26;;;;;;;2.95;1.45;;;;;;;10.47;100.00;98650.38;4402195;32;20034;-73
2022/05/23 05:44:01;;;;;;;2.45;1.33;;;;;;;10.46;100.00;98654.13;4410462;32;20536;-72
2022/05/23 05:46:32;;;;;;;2.60;1.75;;;;;;;10.67;100.00;98648.91;4408019;32;20419;-73
2022/05/23 05:49:03;;;;;;;3.90;1.75;;;;;;;10.72;100.00;98640.84;4386438;32;20072;-72
2022/05/23 05:51:31;;;;;;;2.08;1.42;;;;;;;10.88;100.00;98650.66;4387623;32;20120;-73
2022/05/23 05:54:02;;;;;;;2.55;1.67;;;;;;;10.56;100.00;98620.28;4399821;32;20057;-73
2022/05/23 05:56:33;;;;;;;1.50;1.40;;;;;;;10.90;100.00;98648.50;4386024;32;20039;-74
2022/05/23 05:59:01;;;;;;;2.80;1.50;;;;;;;10.87;100.00;98659.81;4387549;32;20462;-74
2022/05/23 06:01:27;;;;;;;11.40;2.10;;;;;;;11.07;100.00;98658.28;4389656;32;20061;-74
2022/05/23 06:03:54;;;;;;;6.43;1.55;;;;;;;11.09;100.00;98656.97;4405679;32;20039;-75
2022/05/23 06:11:52;;;;;;;2.90;1.25;;;;;;;11.30;100.00;98661.63;4408048;32;20116;-76
2022/05/23 06:14:19;;;;;;;1.27;1.23;;;;;;;11.26;100.00;98662.16;4387582;32;20227;-74
2022/05/23 06:16:46;;;;;;;1.52;1.42;;;;;;;11.07;100.00;98628.66;4388606;32;20407;-74
2022/05/23 06:19:14;;;;;;;4.12;1.80;;;;;;;11.34;100.00;98662.72;4415449;32;20403;-74
2022/05/23 06:21:42;;;;;;;1.52;1.42;;;;;;;11.20;100.00;98643.53;4400663;32;20053;-75
2022/05/23 06:24:09;;;;;;;3.90;1.23;;;;;;;11.49;100.00;98673.56;4406993;32;20239;-74
2022/05/23 06:26:36;;;;;;;2.75;1.50;;;;;;;11.53;100.00;98671.94;4395671;32;20100;-73
2022/05/23 06:29:04;;;;;;;2.53;1.37;;;;;;;11.31;100.00;98636.28;4414369;32;20079;-73
2022/05/23 06:31:32;;;;;;;2.95;1.60;;;;;;;11.44;100.00;98635.81;4414303;32;20056;-73
2022/05/23 06:33:59;;;;;;;2.17;1.40;;;;;;;11.57;100.00;98683.84;4413954;32;20038;-72
2022/05/23 06:36:27;;;;;;;6.62;2.60;;;;;;;11.19;100.00;98631.94;4414974;32;20352;-73
2022/05/23 06:38:53;;;;;;;3.22;1.70;;;;;;;11.52;100.00;98675.75;4401440;32;20321;-73
2022/05/23 06:41:21;;;;;;;12.40;1.30;;;;;;;11.55;100.00;98679.78;4399500;32;20034;-74
2022/05/23 06:43:50;;;;;;;2.95;1.20;;;;;;;11.63;100.00;98673.88;4386498;32;20058;-74
2022/05/23 06:46:21;;;;;;;7.95;1.20;;;;;;;11.71;100.00;98680.63;4402335;32;20356;-73
2022/05/23 06:48:53;;;;;;;3.83;1.33;;;;;;;11.81;100.00;98688.78;4389096;32;20056;-74
2022/05/23 06:51:23;;;;;;;5.50;1.40;;;;;;;11.87;100.00;98695.81;4408173;32;20043;-74
2022/05/23 06:53:50;;;;;;;1.50;1.30;;;;;;;11.87;100.00;98697.66;4409129;32;20043;-74
2022/05/23 06:56:18;;;;;;;1.48;1.42;;;;;;;11.66;100.00;98675.22;4411016;32;20060;-74
2022/05/23 06:58:46;;;;;;;1.35;1.23;;;;;;;11.77;100.00;98668.78;4395470;32;20060;-73
2022/05/23 07:01:15;;;;;;;1.33;1.17;;;;;;;11.86;100.00;98667.19;4393485;32;20440;-73
2022/05/23 07:03:46;;;;;;;1.37;1.37;;;;;;;11.87;100.00;98655.34;4393331;32;20058;-73
2022/05/23 07:14:34;;;;;;;1.30;1.08;;;;;;;12.31;100.00;98689.94;4410341;32;20196;-74
2022/05/23 07:17:02;;;;;;;1.98;1.80;;;;;;;12.57;100.00;98695.34;4411785;32;20076;-74
2022/05/23 07:19:30;;;;;;;2.12;1.25;;;;;;;12.61;100.00;98677.53;4411601;32;20047;-74
2022/05/23 07:21:59;;;;;;;2.53;1.58;;;;;;;12.60;100.00;98667.78;4405862;32;20099;-73
2022/05/23 07:24:31;;;;;;;1.17;0.95;;;;;;;12.70;100.00;98684.00;4388776;32;20053;-72
2022/05/23 07:27:00;;;;;;;1.02;1.02;;;;;;;12.62;100.00;98687.25;4412869;32;20068;-73
2022/05/23 07:29:27;;;;;;;1.08;1.08;;;;;;;12.36;100.00;98654.03;4412724;32;20077;-72
2022/05/23 07:31:58;;;;;;;1.05;1.05;;;;;;;12.64;100.00;98679.69;4411601;32;20074;-73
2022/05/23 07:34:26;;;;;;;3.03;0.98;;;;;;;12.63;100.00;98667.25;4410529;32;20379;-74
2022/05/23 07:36:52;;;;;;;6.50;1.40;;;;;;;12.68;100.00;98664.56;4400778;32;20436;-73
2022/05/23 07:39:19;;;;;;;1.87;1.08;;;;;;;12.51;100.00;98637.84;4413230;32;20068;-74
2022/05/23 07:41:47;;;;;;;1.83;1.33;;;;;;;12.84;100.00;98667.22;4392018;32;20042;-74
2022/05/23 07:44:15;;;;;;;6.35;1.25;;;;;;;12.82;100.00;98674.78;4409793;32;20047;-74
2022/05/23 07:46:43;;;;;;;3.40;1.20;;;;;;;12.87;100.00;98666.66;4415849;32;20042;-74
2022/05/23 07:49:10;;;;;;;2.72;1.15;;;;;;;12.70;100.00;98672.38;4413535;32;20085;-74
2022/05/23 07:51:37;;;;;;;3.22;1.10;;;;;;;12.83;100.00;98679.12;4416719;32;20038;-73
2022/05/23 08:02:31;;;;;;;1.62;1.00;;;;;;;12.71;100.00;98636.97;4402629;32;20078;-73
2022/05/23 08:04:59;;;;;;;2.20;1.42;;;;;;;12.93;100.00;98662.88;4400255;32;20046;-73
2022/05/23 08:07:28;;;;;;;3.50;1.30;;;;;;;13.05;100.00;98658.00;4388563;32;20104;-73
2022/05/23 08:10:00;;;;;;;1.20;1.10;;;;;;;12.75;100.00;98625.62;4400259;32;20459;-73
2022/05/23 08:12:28;;;;;;;;;;;;;;;13.19;100.00;98662.81;4388214;32;20091;-75
2022/05/23 08:14:55;;;;;;;2.53;1.33;;;;;;;13.24;100.00;98665.47;4401096;32;19979;-75
2022/05/23 08:17:23;;;;;;;2.90;1.10;;;;;;;13.31;100.00;98670.62;4391619;32;20049;-71
2022/05/23 08:19:50;;;;;;;1.90;1.10;;;;;;;13.33;100.00;98666.56;4406549;32;20042;-72
2022/05/23 08:22:19;;;;;;;1.40;1.30;;;;;;;13.19;100.00;98662.81;4406046;32;20104;-71
2022/05/23 08:24:49;;;;;;;3.25;1.33;;;;;;;13.05;100.00;98632.84;4406578;32;20027;-71
2022/05/23 08:27:16;;;;;;;1.45;1.35;;;;;;;13.14;100.00;98638.50;4407557;32;20056;-71
2022/05/23 08:29:43;;;;;;;6.37;1.40;;;;;;;13.37;100.00;98658.69;4403811;32;20442;-73
2022/05/23 08:32:11;;;;;;;4.78;1.55;;;;;;;13.48;100.00;98665.69;4406560;32;20043;-70
2022/05/23 08:34:38;;;;;;;2.87;1.08;;;;;;;13.37;100.00;98637.06;4407839;32;20064;-70
2022/05/23 08:37:07;;;;;;;1.25;1.15;;;;;;;13.58;100.00;98659.44;4404405;32;20478;-70
2022/05/23 08:39:34;;;;;;;1.62;1.52;;;;;;;13.54;100.00;98666.47;4406888;32;20038;-71
2022/05/23 08:42:28;;;;;;;1.20;1.20;;;;;;;13.32;100.00;98621.66;4408417;32;20060;-72
2022/05/23 08:45:07;;;;;;;1.52;1.30;;;;;;;13.71;100.00;98658.81;4396200;32;20060;-71
2022/05/23 08:47:43;;;;;;;5.57;1.58;;;;;;;13.64;100.00;98625.84;4402596;32;20038;-73
2022/05/23 08:50:28;;;;;;;2.22;1.17;;;;;;;13.85;100.00;98658.19;4403971;32;20039;-72
2022/05/23 08:53:08;;;;;;;1.45;1.35;;;;;;;13.97;100.00;98656.75;4408284;32;20056;-72
2022/05/23 08:55:40;;;;;;;2.28;1.65;;;;;;;14.11;100.00;98646.09;4393480;32;20601;-72
2022/05/23 08:58:20;;;;;;;4.25;0.85;;;;;;;14.01;100.00;98635.38;4400663;32;20042;-73
2022/05/23 09:00:53;;;;;;;2.12;1.37;;;;;;;14.05;100.00;98636.41;4399655;32;20030;-74
2022/05/23 09:03:38;;;;;;;3.03;1.60;;;;;;;14.10;100.00;98625.53;4415780;32;20474;-71
2022/05/23 09:06:13;;;;;;;1.23;1.20;;;;;;;14.23;100.00;98631.41;4412518;32;20060;-71
2022/05/23 09:08:51;;;;;;;3.10;1.12;;;;;;;14.27;100.00;98621.63;4411821;32;20038;-72
2022/05/23 09:11:41;;;;;;;1.73;1.02;;;;;;;14.42;100.00;98624.19;4410224;32;20078;-72
2022/05/23 09:14:09;;;;;;;2.97;1.40;;;;;;;14.28;100.00;98612.38;4399218;32;20055;-72
2022/05/23 09:16:40;;;;;;;3.47;1.27;;;;;;;14.24;100.00;98627.59;4401079;32;20047;-71
2022/05/23 09:19:12;;;;;;;1.87;1.77;;;;;;;14.27;100.00;98606.19;4400895;32;20070;-72
2022/05/23 09:24:30;;;;;;;1.48;1.37;;;;;;;14.37;100.00;98626.12;4401123;32;20065;-72
2022/05/23 09:26:59;;;;;;;2.35;1.65;;;;;;;14.49;100.00;98630.09;4386478;32;20079;-71
2022/05/23 09:29:25;;;;;;;1.55;1.00;;;;;;;14.61;100.00;98627.00;4386778;32;20061;-74
2022/05/23 09:31:59;;;;;;;1.98;1.50;;;;;;;14.61;100.00;98618.09;4386462;32;20054;-73
2022/05/23 09:34:35;;;;;;;2.85;1.48;;;;;;;14.57;100.00;98581.78;4401175;32;20042;-72
2022/05/23 09:37:04;;;;;;;1.33;1.15;;;;;;;14.96;100.00;98624.22;4374870;32;20076;-72
2022/05/23 09:39:34;;;;;;;2.35;1.58;;;;;;;14.94;100.00;98596.59;4404993;32;20051;-71
2022/05/23 09:47:46;;;;;;;1.00;1.00;;;;;;;15.33;100.00;98617.28;4401094;32;20544;-71
2022/05/23 09:50:26;;;;;;;3.50;1.12;;;;;;;15.07;100.00;98612.16;4400148;32;20407;-71
2022/05/23 09:52:57;;;;;;;3.45;1.05;;;;;;;15.18;100.00;98608.22;4400701;32;20051;-72
2022/05/23 09:55:37;;;;;;;1.20;1.10;;;;;;;15.18;100.00;98607.44;4386885;32;20065;-72
2022/05/23 09:58:11;;;;;;;2.53;1.17;;;;;;;15.34;100.00;98600.72;4397578;32;20039;-72
2022/05/23 10:00:39;;;;;;;;;;;;;;;15.52;100.00;98596.38;4400109;32;20058;-72
2022/05/23 10:03:19;;;;;;;1.27;1.27;;;;;;;15.76;100.00;98595.50;4409946;32;20014;-71
2022/05/23 10:06:00;;;;;;;6.15;1.20;;;;;;;15.92;100.00;98599.66;4414967;32;20090;-71
2022/05/23 10:08:28;;;;;;;1.30;1.25;;;;;;;15.83;100.00;98601.41;4415534;32;20422;-72
2022/05/23 10:10:58;;;;;;;1.08;1.08;;;;;;;15.59;100.00;98594.12;4402668;32;20399;-71
2022/05/23 10:13:31;;;;;;;3.90;1.12;;;;;;;15.47;100.00;98593.75;4385906;32;20036;-72
2022/05/23 10:16:00;;;;;;;1.02;1.02;;;;;;;15.38;100.00;98562.94;4385967;32;20076;-72
2022/05/23 10:18:30;;;;;;;2.25;2.00;;;;;;;15.62;100.00;98573.75;4401517;32;20474;-73
2022/05/23 10:20:58;;;;;;;5.28;2.00;;;;;;;15.71;100.00;98560.31;4404149;32;20031;-72
2022/05/23 10:23:33;;;;;;;1.45;1.33;;;;;;;15.90;100.00;98552.19;4401874;32;20050;-72
2022/05/23 10:26:08;;;;;;;3.17;1.20;;;;;;;16.08;99.07;98585.81;4402848;32;20110;-73
2022/05/23 10:29:11;;;;;;;2.05;1.10;;;;;;;16.19;97.08;98584.53;4388909;32;20334;-72
2022/05/23 10:31:42;;;;;;;1.02;1.02;;;;;;;15.83;91.21;98568.84;4382139;32;20041;-72
2022/05/23 10:34:19;;;;;;;0.98;0.98;;;;;;;16.27;94.28;98588.50;4402329;32;20051;-73
2022/05/23 10:36:49;;;;;;;1.40;0.90;;;;;;;16.14;91.05;98587.34;4400076;32;20027;-74
2022/05/23 10:42:16;;;;;;;3.08;0.88;;;;;;;16.28;87.97;98592.84;4403149;32;20031;-73
2022/05/23 10:44:43;;;;;;;2.27;0.73;;;;;;;16.69;86.53;98595.62;4401172;32;20072;-74
2022/05/23 10:47:33;;;;;;;1.10;1.10;;;;;;;16.32;81.77;98591.13;4404727;32;20047;-73
2022/05/23 10:50:24;;;;;;;1.05;1.02;;;;;;;16.80;78.75;98584.53;4401386;32;20060;-72
2022/05/23 10:52:55;;;;;;;6.12;1.20;;;;;;;17.22;81.27;98590.81;4388692;32;20069;-73
2022/05/23 10:55:43;;;;;;;5.37;1.35;;;;;;;17.17;75.61;98555.56;4388785;32;20043;-71
2022/05/23 10:58:29;;;;;;;1.23;1.10;;;;;;;17.38;71.70;98591.28;4387432;32;20057;-72
2022/05/23 11:01:27;;;;;;;1.00;1.00;;;;;;;17.43;67.65;98581.09;4387286;32;20039;-72
2022/05/23 11:04:09;;;;;;;2.35;1.45;;;;;;;18.39;70.19;98581.03;4374641;32;20381;-73
2022/05/23 11:07:03;;;;;;;1.75;1.20;;;;;;;18.77;60.20;98574.31;4386988;32;20196;-70
2022/05/23 11:09:29;;;;;;;2.17;1.00;;;;;;;19.37;60.66;98578.34;4387432;32;20056;-70
2022/05/23 11:12:14;;;;;;;1.02;1.00;;;;;;;19.69;53.97;98576.28;4388604;32;20345;-72
2022/05/23 11:15:07;;;;;;;1.50;1.12;;;;;;;19.59;56.16;98570.03;4388316;32;20046;-71
2022/05/23 11:17:49;;;;;;;1.98;1.75;;;;;;;19.63;65.68;98558.47;4386964;32;20073;-72
2022/05/23 11:20:29;;;;;;;1.47;1.37;;;;;;;20.11;63.41;98573.88;4387946;32;20035;-72
2022/05/23 11:23:21;;;;;;;2.83;1.20;;;;;;;20.27;60.52;98566.78;4388452;32;20036;-71
2022/05/23 11:25:59;;;;;;;4.60;1.40;;;;;;;20.01;49.89;98563.28;4388281;32;20057;-72
2022/05/23 11:34:39;;;;;;;1.30;1.30;;;;;;;20.42;49.99;98540.03;4402698;32;20456;-73
2022/05/23 11:37:42;;;;;;;5.72;1.02;;;;;;;20.85;53.13;98558.22;4402943;32;20038;-72
2022/05/23 11:40:06;;;;;;;3.30;1.30;;;;;;;19.67;50.57;98551.22;4400577;32;20046;-73
2022/05/23 11:42:56;;;;;;;3.37;1.12;;;;;;;19.69;50.41;98535.31;4402587;32;20043;-72
2022/05/23 11:46:00;;;;;;;5.03;1.23;;;;;;;19.86;54.63;98535.34;4388457;32;20403;-75
2022/05/23 11:48:43;;;;;;;7.43;1.17;;;;;;;21.09;54.72;98562.28;4402817;32;20074;-73
2022/05/23 11:51:22;;;;;;;5.65;0.93;;;;;;;21.84;46.45;98558.88;4402773;32;20058;-72
2022/05/23 11:54:01;;;;;;;1.70;1.50;;;;;;;21.89;45.46;98528.53;4402352;32;20077;-71
2022/05/23 11:56:37;;;;;;;4.40;1.25;;;;;;;20.78;52.11;98557.97;4387914;32;20447;-72
2022/05/23 11:59:06;;;;;;;2.92;1.17;;;;;;;21.36;49.86;98561.81;4402717;32;20100;-72
2022/05/23 12:01:34;;;;;;;1.55;1.45;;;;;;;20.95;45.30;98551.56;4390582;32;20395;-71
2022/05/23 12:04:01;;;;;;;1.52;1.17;;;;;;;20.67;45.06;98525.47;4400701;32;20039;-70
2022/05/23 12:06:27;;;;;;;1.73;1.62;;;;;;;21.46;54.77;98543.38;4401783;32;20075;-72
2022/05/23 12:09:12;;;;;;;1.20;1.10;;;;;;;21.68;43.53;98551.28;4387194;32;20031;-71
2022/05/23 12:11:44;;;;;;;1.42;1.33;;;;;;;21.67;49.35;98510.53;4389126;32;20061;-70
2022/05/23 12:14:16;;;;;;;1.62;1.50;;;;;;;21.89;49.42;98534.81;4388442;32;20038;-72
2022/05/23 12:16:55;;;;;;;1.50;1.40;;;;;;;21.23;48.63;98540.94;4396675;32;20038;-72
2022/05/23 12:19:27;;;;;;;2.22;1.50;;;;;;;20.50;62.44;98534.56;4409033;32;20035;-71
2022/05/23 12:22:20;;;;;;;3.15;1.45;;;;;;;21.49;59.93;98534.50;4402494;32;20038;-71
2022/05/23 12:25:07;;;;;;;1.55;1.40;;;;;;;21.16;48.97;98527.00;4374829;32;20068;-71
2022/05/23 12:27:58;;;;;;;2.42;1.65;;;;;;;21.57;53.98;98528.16;4404663;32;20043;-72
2022/05/23 12:30:34;;;;;;;1.98;1.25;;;;;;;21.53;55.98;98540.94;4396151;32;20039;-71
2022/05/23 12:36:36;;;;;;;1.75;1.65;;;;;;;19.12;67.44;98520.69;4397176;32;20052;-76
2022/05/23 12:39:29;;;;;;;1.12;1.10;;;;;;;19.44;66.58;98513.16;4387483;32;20069;-71
2022/05/23 12:42:06;;;;;;;1.60;1.23;;;;;;;19.77;62.91;98499.06;4402013;32;20047;-71
2022/05/23 12:44:42;;;;;;;1.42;1.33;;;;;;;21.13;62.92;98503.03;4387729;32;20036;-71
2022/05/23 12:47:20;;;;;;;3.03;1.40;;;;;;;22.08;52.88;98492.37;4400363;32;20145;-71
2022/05/23 12:50:12;;;;;;;2.12;1.75;;;;;;;22.70;47.50;98489.75;4415044;32;20224;-72
2022/05/23 12:52:54;;;;;;;1.10;1.10;;;;;;;21.29;43.40;98501.28;4408113;32;20194;-71
2022/05/23 12:55:28;;;;;;;1.00;1.00;;;;;;;21.46;48.64;98497.63;4413195;32;20441;-71
2022/05/23 12:58:00;;;;;;;1.15;1.00;;;;;;;20.75;50.79;98492.97;4407173;32;20345;-71